DIBK

Bouaké Airport

Côte D’Ivoire
TAF DIBK 160500Z 1606/1706 30005KT 7000 NSC TEMPO 1606/1609 3000 BR
Issued Valid From Valid To
Dec-16 @ 05:00 UTC
(an hour ago)
Dec-16 @ 06:00 UTC
(10 minutes ago)
Dec-17 @ 06:00 UTC
(in 24 hours)
Dec-16 @ 06:00 to Dec-17 @ 06:00
TAF DIBK 160500Z 1606/1706 30005KT 7000 NSC
Wind Visibility Clouds
300° at 5 knots 7,001 meters
  • No significant clouds
Temporary Dec-16 @ 06:00 to Dec-16 @ 09:00
TEMPO 1606/1609 3000 BR
Visibility Conditions
2,993 meters
  • Mist
TAF DIBK 160500Z 1606/1706 30005KT 7000 NSC TEMPO 1606/1609 3000 BR
Issued Dec-16 @ 05:00 UTC
(an hour ago)
Valid From Dec-16 @ 06:00 UTC
(10 minutes ago)
Valid To Dec-17 @ 06:00 UTC
(in 24 hours)
Dec-16 @ 06:00 - Dec-17 @ 06:00
Wind Visibility
300° at 5 knots 7,001 meters
Clouds
  • No significant clouds
Temporary Dec-16 @ 06:00 - Dec-16 @ 09:00
Conditions
  • Mist